Time;durP1;ratioP1;P1;durP2;ratioP2;P2;SDS_P1;SDS_P2;PMS_P1;PMS_P2;Temp;Humidity;BMP_temperature;BMP_pressure;BME280_temperature;BME280_humidity;BME280_pressure;Samples;Min_cycle;Max_cycle;Signal;HPM_P1;HPM_P2
2020/08/18 00:00:08;;;;;;;1.55;1.45;;;;;;;23.63;71.40;99968.34;;;;-52
2020/08/18 00:03:07;;;;;;;2.57;1.60;;;;;;;23.63;71.38;99966.23;;;;-52
2020/08/18 00:06:08;;;;;;;1.81;1.53;;;;;;;23.63;71.38;99964.92;;;;-52
2020/08/18 00:09:08;;;;;;;1.75;1.63;;;;;;;23.62;71.39;99965.68;;;;-53
2020/08/18 00:12:08;;;;;;;1.51;1.40;;;;;;;23.61;71.41;99964.94;;;;-51
2020/08/18 00:15:08;;;;;;;2.20;1.50;;;;;;;23.61;71.40;99967.16;;;;-51
2020/08/18 00:18:07;;;;;;;1.59;1.49;;;;;;;23.60;71.40;99971.76;;;;-51
2020/08/18 00:21:07;;;;;;;1.50;1.40;;;;;;;23.60;71.42;99976.02;;;;-52
2020/08/18 00:24:08;;;;;;;1.50;1.40;;;;;;;23.60;71.39;99971.70;;;;-52
2020/08/18 00:27:08;;;;;;;1.63;1.53;;;;;;;23.60;71.39;99978.41;;;;-51
2020/08/18 00:30:08;;;;;;;1.78;1.49;;;;;;;23.59;71.42;99974.81;;;;-52
2020/08/18 00:33:08;;;;;;;1.49;1.39;;;;;;;23.59;71.38;99979.95;;;;-52
2020/08/18 00:36:08;;;;;;;1.63;1.49;;;;;;;23.58;71.40;99983.66;;;;-51
2020/08/18 00:39:08;;;;;;;1.52;1.42;;;;;;;23.58;71.47;99988.97;;;;-51
2020/08/18 00:42:08;;;;;;;1.41;1.31;;;;;;;23.57;71.45;99989.17;;;;-51
2020/08/18 00:45:07;;;;;;;2.06;1.38;;;;;;;23.57;71.44;99995.06;;;;-51
2020/08/18 00:48:08;;;;;;;1.71;1.61;;;;;;;23.57;71.42;99995.94;;;;-53
2020/08/18 00:51:08;;;;;;;1.59;1.49;;;;;;;23.56;71.47;99989.83;;;;-51
2020/08/18 00:54:07;;;;;;;1.56;1.40;;;;;;;23.56;71.43;99984.03;;;;-51
2020/08/18 00:57:08;;;;;;;1.60;1.50;;;;;;;23.55;71.46;99982.56;;;;-52
2020/08/18 01:00:08;;;;;;;1.51;1.41;;;;;;;23.55;71.43;99988.06;;;;-51
2020/08/18 01:03:07;;;;;;;1.46;1.36;;;;;;;23.56;71.42;99981.10;;;;-51
2020/08/18 01:06:07;;;;;;;1.55;1.44;;;;;;;23.55;71.39;99982.07;;;;-51
2020/08/18 01:09:08;;;;;;;1.57;1.40;;;;;;;23.55;71.44;99972.92;;;;-52
2020/08/18 01:12:08;;;;;;;1.39;1.30;;;;;;;23.54;71.42;99971.80;;;;-51
2020/08/18 01:15:08;;;;;;;1.50;1.40;;;;;;;23.54;71.47;99969.83;;;;-51
2020/08/18 01:18:08;;;;;;;1.48;1.38;;;;;;;23.53;71.41;99969.61;;;;-52
2020/08/18 01:21:08;;;;;;;1.50;1.39;;;;;;;23.54;71.42;99976.06;;;;-51
2020/08/18 01:24:08;;;;;;;1.48;1.38;;;;;;;23.53;71.37;99972.47;;;;-53
2020/08/18 01:27:08;;;;;;;1.73;1.30;;;;;;;23.52;71.44;99968.97;;;;-53
2020/08/18 01:30:08;;;;;;;1.51;1.41;;;;;;;23.52;71.41;99966.27;;;;-52
2020/08/18 01:33:08;;;;;;;1.43;1.33;;;;;;;23.52;71.42;99964.16;;;;-53
2020/08/18 01:36:08;;;;;;;1.50;1.40;;;;;;;23.51;71.49;99970.80;;;;-51
2020/08/18 01:39:08;;;;;;;1.59;1.49;;;;;;;23.51;71.45;99971.19;;;;-53
2020/08/18 01:42:07;;;;;;;1.50;1.40;;;;;;;23.50;71.43;99968.75;;;;-51
2020/08/18 01:45:07;;;;;;;1.52;1.38;;;;;;;23.51;71.44;99973.09;;;;-52
2020/08/18 01:48:07;;;;;;;1.40;1.30;;;;;;;23.51;71.43;99975.54;;;;-51
2020/08/18 01:51:08;;;;;;;1.42;1.32;;;;;;;23.51;71.43;99973.91;;;;-51
2020/08/18 01:54:07;;;;;;;1.45;1.34;;;;;;;23.50;71.48;99977.67;;;;-52
2020/08/18 01:57:08;;;;;;;1.41;1.31;;;;;;;23.50;71.41;99971.55;;;;-53
2020/08/18 02:00:07;;;;;;;1.30;1.20;;;;;;;23.50;71.44;99971.80;;;;-52
2020/08/18 02:03:08;;;;;;;1.51;1.41;;;;;;;23.50;71.41;99969.18;;;;-53
2020/08/18 02:06:07;;;;;;;1.44;1.34;;;;;;;23.49;71.40;99969.59;;;;-51
2020/08/18 02:09:13;;;;;;;1.49;1.39;;;;;;;23.49;71.42;99975.32;;;;-52
2020/08/18 02:12:08;;;;;;;1.43;1.33;;;;;;;23.49;71.47;99976.89;;;;-52
2020/08/18 02:15:07;;;;;;;1.67;1.30;;;;;;;23.49;71.41;99972.20;;;;-53
2020/08/18 02:18:08;;;;;;;1.55;1.42;;;;;;;23.49;71.44;99968.94;;;;-52
2020/08/18 02:21:08;;;;;;;1.48;1.38;;;;;;;23.48;71.47;99971.73;;;;-53
2020/08/18 02:24:08;;;;;;;1.32;1.22;;;;;;;23.50;71.47;99971.96;;;;-53
2020/08/18 02:27:07;;;;;;;1.45;1.35;;;;;;;23.48;71.40;99966.66;;;;-51
2020/08/18 02:30:07;;;;;;;1.35;1.29;;;;;;;23.48;71.42;99964.78;;;;-51
2020/08/18 02:33:08;;;;;;;1.49;1.39;;;;;;;23.48;71.42;99971.25;;;;-51
2020/08/18 02:36:08;;;;;;;1.40;1.30;;;;;;;23.48;71.42;99975.58;;;;-51
2020/08/18 02:39:08;;;;;;;1.50;1.40;;;;;;;23.47;71.41;99983.53;;;;-51
2020/08/18 02:42:08;;;;;;;1.21;1.19;;;;;;;23.47;71.44;99984.20;;;;-52
2020/08/18 02:45:07;;;;;;;1.44;1.34;;;;;;;23.47;71.44;99988.92;;;;-52
2020/08/18 02:48:08;;;;;;;1.49;1.39;;;;;;;23.47;71.36;99984.44;;;;-51
2020/08/18 02:51:07;;;;;;;1.41;1.31;;;;;;;23.46;71.45;99982.00;;;;-51
2020/08/18 02:54:08;;;;;;;1.47;1.37;;;;;;;23.46;71.43;99977.91;;;;-51
2020/08/18 02:57:07;;;;;;;1.39;1.29;;;;;;;23.47;71.37;99980.18;;;;-53
2020/08/18 03:00:07;;;;;;;1.50;1.40;;;;;;;23.46;71.43;99980.21;;;;-51
2020/08/18 03:03:08;;;;;;;1.39;1.29;;;;;;;23.45;71.44;99977.20;;;;-51
2020/08/18 03:06:08;;;;;;;1.21;1.20;;;;;;;23.45;71.41;99978.16;;;;-52
2020/08/18 03:09:08;;;;;;;1.40;1.30;;;;;;;23.45;71.39;99982.09;;;;-53
2020/08/18 03:12:08;;;;;;;1.47;1.37;;;;;;;23.45;71.39;99986.17;;;;-51
2020/08/18 03:15:08;;;;;;;1.41;1.31;;;;;;;23.44;71.43;99987.50;;;;-53
2020/08/18 03:18:08;;;;;;;1.37;1.27;;;;;;;23.44;71.37;99982.59;;;;-53
2020/08/18 03:21:08;;;;;;;1.40;1.30;;;;;;;23.43;71.38;99977.06;;;;-51
2020/08/18 03:24:08;;;;;;;1.44;1.34;;;;;;;23.43;71.40;99980.99;;;;-51
2020/08/18 03:27:08;;;;;;;2.04;1.20;;;;;;;23.43;71.40;99986.80;;;;-53
2020/08/18 03:30:08;;;;;;;1.53;1.36;;;;;;;23.43;71.38;99988.03;;;;-51
2020/08/18 03:33:08;;;;;;;1.42;1.32;;;;;;;23.43;71.43;99990.48;;;;-51
2020/08/18 03:36:08;;;;;;;1.57;1.40;;;;;;;23.44;71.40;99990.23;;;;-51
2020/08/18 03:39:08;;;;;;;1.59;1.49;;;;;;;23.43;71.39;99983.52;;;;-53
2020/08/18 03:42:08;;;;;;;1.42;1.32;;;;;;;23.42;71.44;99986.23;;;;-53
2020/08/18 03:45:08;;;;;;;1.40;1.30;;;;;;;23.42;71.38;99990.57;;;;-51
2020/08/18 03:48:08;;;;;;;1.39;1.29;;;;;;;23.41;71.38;99986.10;;;;-51
2020/08/18 03:51:08;;;;;;;1.30;1.20;;;;;;;23.42;71.36;99987.81;;;;-51
2020/08/18 03:54:08;;;;;;;1.34;1.24;;;;;;;23.42;71.42;99986.50;;;;-51
2020/08/18 03:57:07;;;;;;;1.40;1.30;;;;;;;23.42;71.41;99992.05;;;;-52
2020/08/18 04:00:08;;;;;;;1.41;1.31;;;;;;;23.41;71.43;99986.42;;;;-53
2020/08/18 04:03:08;;;;;;;1.39;1.29;;;;;;;23.41;71.38;99985.86;;;;-52
2020/08/18 04:06:08;;;;;;;1.40;1.30;;;;;;;23.42;71.34;99987.55;;;;-51
2020/08/18 04:09:08;;;;;;;1.53;1.35;;;;;;;23.41;71.42;99984.30;;;;-53
2020/08/18 04:12:08;;;;;;;1.45;1.35;;;;;;;23.41;71.36;99983.90;;;;-51
2020/08/18 04:15:08;;;;;;;1.42;1.32;;;;;;;23.40;71.39;99987.65;;;;-52
2020/08/18 04:18:08;;;;;;;1.48;1.38;;;;;;;23.41;71.40;99996.55;;;;-51
2020/08/18 04:21:08;;;;;;;1.35;1.25;;;;;;;23.41;71.42;99999.44;;;;-52
2020/08/18 04:24:08;;;;;;;1.36;1.26;;;;;;;23.40;71.39;100003.44;;;;-53
2020/08/18 04:27:08;;;;;;;1.51;1.41;;;;;;;23.41;71.46;100006.20;;;;-53
2020/08/18 04:30:07;;;;;;;1.49;1.39;;;;;;;23.40;71.34;100002.78;;;;-51
2020/08/18 04:33:08;;;;;;;1.40;1.30;;;;;;;23.40;71.43;100002.95;;;;-52
2020/08/18 04:36:08;;;;;;;1.37;1.27;;;;;;;23.41;71.43;100004.08;;;;-51
2020/08/18 04:39:08;;;;;;;1.21;1.20;;;;;;;23.40;71.46;100002.20;;;;-51
2020/08/18 04:42:08;;;;;;;1.36;1.26;;;;;;;23.40;71.47;100008.75;;;;-51
2020/08/18 04:45:08;;;;;;;1.40;1.30;;;;;;;23.40;71.38;100010.00;;;;-51
2020/08/18 04:48:08;;;;;;;1.27;1.20;;;;;;;23.40;71.47;100009.18;;;;-52
2020/08/18 04:51:08;;;;;;;1.41;1.31;;;;;;;23.40;71.41;100007.13;;;;-53
2020/08/18 04:54:08;;;;;;;1.30;1.20;;;;;;;23.40;71.40;100006.80;;;;-51
2020/08/18 04:57:08;;;;;;;1.31;1.21;;;;;;;23.39;71.37;100007.39;;;;-53
2020/08/18 05:00:12;;;;;;;1.20;1.20;;;;;;;23.39;71.45;100004.05;;;;-52
2020/08/18 05:03:08;;;;;;;1.27;1.20;;;;;;;23.39;71.44;100011.91;;;;-53
2020/08/18 05:06:08;;;;;;;1.17;1.17;;;;;;;23.39;71.38;100012.87;;;;-51
2020/08/18 05:09:08;;;;;;;1.50;1.40;;;;;;;23.39;71.43;100013.63;;;;-53
2020/08/18 05:12:08;;;;;;;1.42;1.32;;;;;;;23.38;71.42;100012.05;;;;-51
2020/08/18 05:15:08;;;;;;;1.37;1.27;;;;;;;23.38;71.49;100015.32;;;;-51
2020/08/18 05:18:07;;;;;;;1.39;1.29;;;;;;;23.39;71.43;100018.20;;;;-52
2020/08/18 05:21:08;;;;;;;1.45;1.35;;;;;;;23.38;71.42;100025.88;;;;-53
2020/08/18 05:24:07;;;;;;;1.37;1.29;;;;;;;23.37;71.42;100029.59;;;;-51
2020/08/18 05:27:08;;;;;;;1.43;1.33;;;;;;;23.38;71.47;100024.91;;;;-52
2020/08/18 05:31:08;;;;;;;1.34;1.24;;;;;;;23.38;71.46;100029.08;;;;-52
2020/08/18 05:34:08;;;;;;;1.37;1.28;;;;;;;23.37;71.47;100034.18;;;;-51
2020/08/18 05:37:08;;;;;;;1.30;1.20;;;;;;;23.37;71.47;100031.07;;;;-53
2020/08/18 05:40:08;;;;;;;1.29;1.20;;;;;;;23.37;71.45;100030.08;;;;-52
2020/08/18 05:43:08;;;;;;;1.31;1.21;;;;;;;23.37;71.43;100031.47;;;;-51
2020/08/18 05:46:08;;;;;;;1.53;1.40;;;;;;;23.37;71.47;100034.25;;;;-53
2020/08/18 05:49:08;;;;;;;6.42;2.46;;;;;;;23.33;69.69;100034.17;;;;-53
2020/08/18 05:52:08;;;;;;;4.16;2.47;;;;;;;23.25;69.54;100028.66;;;;-52
2020/08/18 05:55:07;;;;;;;3.09;2.57;;;;;;;23.13;69.74;100032.11;;;;-52
2020/08/18 05:58:08;;;;;;;3.69;2.74;;;;;;;23.08;69.49;100032.53;;;;-52
2020/08/18 06:01:08;;;;;;;5.58;2.68;;;;;;;22.97;69.88;100036.97;;;;-52
2020/08/18 06:04:08;;;;;;;4.73;2.72;;;;;;;22.89;70.17;100040.13;;;;-52
2020/08/18 06:07:08;;;;;;;3.28;2.51;;;;;;;22.86;70.39;100042.37;;;;-52
2020/08/18 06:10:08;;;;;;;3.43;2.57;;;;;;;22.85;70.30;100046.97;;;;-52
2020/08/18 06:13:08;;;;;;;4.64;2.43;;;;;;;22.84;70.50;100045.83;;;;-52
2020/08/18 06:16:08;;;;;;;4.07;2.36;;;;;;;22.88;70.50;100050.11;;;;-51
2020/08/18 06:19:08;;;;;;;7.53;2.52;;;;;;;22.92;70.49;100051.94;;;;-52
2020/08/18 06:22:08;;;;;;;3.88;2.35;;;;;;;22.95;70.47;100058.33;;;;-51
2020/08/18 06:25:08;;;;;;;2.66;2.15;;;;;;;22.98;70.46;100066.06;;;;-51
2020/08/18 06:28:08;;;;;;;2.57;2.25;;;;;;;23.00;70.46;100064.23;;;;-53
2020/08/18 06:31:08;;;;;;;2.84;2.35;;;;;;;23.02;70.49;100066.20;;;;-53
2020/08/18 06:34:08;;;;;;;2.61;2.15;;;;;;;23.03;70.50;100063.88;;;;-51
2020/08/18 06:37:08;;;;;;;2.29;2.10;;;;;;;23.04;70.52;100063.88;;;;-51
2020/08/18 06:40:08;;;;;;;2.29;2.07;;;;;;;23.05;70.54;100063.67;;;;-51
2020/08/18 06:43:08;;;;;;;2.49;2.17;;;;;;;23.06;70.57;100064.34;;;;-52
2020/08/18 06:46:08;;;;;;;2.30;2.10;;;;;;;23.06;70.59;100064.25;;;;-54
2020/08/18 06:49:08;;;;;;;2.29;2.09;;;;;;;23.07;70.65;100065.28;;;;-53
2020/08/18 06:52:08;;;;;;;2.37;2.12;;;;;;;23.07;70.68;100066.02;;;;-54
2020/08/18 06:55:07;;;;;;;2.29;1.91;;;;;;;23.08;70.67;100066.77;;;;-54
2020/08/18 06:58:08;;;;;;;2.39;2.11;;;;;;;23.08;70.70;100070.84;;;;-54
2020/08/18 07:01:08;;;;;;;2.24;2.00;;;;;;;23.09;70.73;100074.91;;;;-54
2020/08/18 07:04:08;;;;;;;2.30;2.10;;;;;;;23.09;70.77;100075.47;;;;-53
2020/08/18 07:07:07;;;;;;;2.30;2.01;;;;;;;23.10;70.75;100078.66;;;;-54
2020/08/18 07:10:08;;;;;;;2.08;1.85;;;;;;;23.10;70.80;100077.78;;;;-54
2020/08/18 07:13:07;;;;;;;1.81;1.71;;;;;;;23.10;70.79;100078.99;;;;-53
2020/08/18 07:16:08;;;;;;;2.07;1.91;;;;;;;23.10;70.80;100082.83;;;;-53
2020/08/18 07:19:08;;;;;;;2.12;1.93;;;;;;;23.11;70.82;100083.05;;;;-54
2020/08/18 07:22:08;;;;;;;2.52;1.99;;;;;;;23.11;70.83;100072.42;;;;-54
2020/08/18 07:26:08;;;;;;;2.38;1.83;;;;;;;23.11;70.84;100076.09;;;;-53
2020/08/18 07:29:08;;;;;;;2.65;2.00;;;;;;;23.11;70.89;100075.53;;;;-54
2020/08/18 07:32:08;;;;;;;2.05;1.87;;;;;;;23.12;70.89;100075.84;;;;-54
2020/08/18 07:35:08;;;;;;;2.27;2.07;;;;;;;23.12;70.95;100076.01;;;;-54
2020/08/18 07:38:08;;;;;;;2.07;1.91;;;;;;;23.12;70.95;100076.77;;;;-54
2020/08/18 07:41:08;;;;;;;2.07;1.89;;;;;;;23.11;70.93;100076.67;;;;-54
2020/08/18 07:44:08;;;;;;;4.25;2.13;;;;;;;23.13;71.02;100082.06;;;;-48
2020/08/18 07:47:08;;;;;;;3.19;2.21;;;;;;;23.15;70.78;100083.97;;;;-46
2020/08/18 07:50:08;;;;;;;3.42;2.01;;;;;;;23.16;70.48;100079.65;;;;-49
2020/08/18 07:53:08;;;;;;;3.19;2.10;;;;;;;23.19;70.99;100075.81;;;;-50
2020/08/18 07:56:08;;;;;;;3.81;2.12;;;;;;;23.22;70.93;100075.85;;;;-46
2020/08/18 07:59:08;;;;;;;7.45;2.01;;;;;;;23.23;70.96;100075.84;;;;-55
2020/08/18 08:02:08;;;;;;;4.87;2.21;;;;;;;23.25;71.22;100076.55;;;;-53
2020/08/18 08:05:08;;;;;;;6.58;2.03;;;;;;;23.28;71.59;100079.45;;;;-49
2020/08/18 08:08:08;;;;;;;4.15;1.93;;;;;;;23.29;71.33;100083.92;;;;-50
2020/08/18 08:11:08;;;;;;;7.39;2.11;;;;;;;23.32;71.35;100080.62;;;;-49
2020/08/18 08:14:08;;;;;;;5.43;2.15;;;;;;;23.31;71.33;100082.50;;;;-49
2020/08/18 08:17:08;;;;;;;12.36;2.19;;;;;;;23.32;71.36;100082.66;;;;-49
2020/08/18 08:20:08;;;;;;;5.33;2.31;;;;;;;23.33;71.39;100087.70;;;;-49
2020/08/18 08:23:08;;;;;;;3.39;2.09;;;;;;;23.33;71.33;100085.58;;;;-48
2020/08/18 08:26:08;;;;;;;3.62;2.09;;;;;;;23.34;71.19;100088.81;;;;-49
2020/08/18 08:29:08;;;;;;;4.57;2.01;;;;;;;23.35;71.39;100088.11;;;;-49
2020/08/18 08:32:08;;;;;;;4.23;2.09;;;;;;;23.36;71.23;100086.44;;;;-51
2020/08/18 08:35:08;;;;;;;4.07;1.97;;;;;;;23.37;71.15;100084.22;;;;-50
2020/08/18 08:38:08;;;;;;;3.38;2.11;;;;;;;23.39;71.21;100091.97;;;;-50
2020/08/18 08:41:08;;;;;;;6.37;2.01;;;;;;;23.39;71.21;100089.90;;;;-49
2020/08/18 08:44:08;;;;;;;4.71;1.93;;;;;;;23.41;71.09;100089.72;;;;-50
2020/08/18 08:47:08;;;;;;;3.39;1.94;;;;;;;23.43;71.05;100089.67;;;;-50
2020/08/18 08:50:08;;;;;;;5.62;2.11;;;;;;;23.43;71.22;100096.06;;;;-52
2020/08/18 08:53:08;;;;;;;3.87;2.01;;;;;;;23.45;71.13;100098.39;;;;-52
2020/08/18 08:56:08;;;;;;;5.04;2.00;;;;;;;23.46;71.02;100096.33;;;;-48
2020/08/18 08:59:08;;;;;;;6.41;1.97;;;;;;;23.47;71.21;100096.16;;;;-50
2020/08/18 09:02:08;;;;;;;7.45;2.04;;;;;;;23.47;70.92;100091.58;;;;-51
2020/08/18 09:05:08;;;;;;;5.25;2.04;;;;;;;23.47;70.87;100094.75;;;;-50
2020/08/18 09:08:08;;;;;;;4.81;2.10;;;;;;;23.46;71.10;100095.02;;;;-51
2020/08/18 09:11:08;;;;;;;4.25;1.95;;;;;;;23.45;71.12;100092.58;;;;-51
2020/08/18 09:14:08;;;;;;;5.65;2.09;;;;;;;23.45;71.03;100089.97;;;;-51
2020/08/18 09:17:08;;;;;;;4.55;2.19;;;;;;;23.44;71.00;100087.87;;;;-51
2020/08/18 09:20:08;;;;;;;4.13;1.99;;;;;;;23.43;71.02;100090.17;;;;-51
2020/08/18 09:23:08;;;;;;;3.32;1.87;;;;;;;23.42;70.98;100088.14;;;;-51
2020/08/18 09:26:08;;;;;;;4.02;2.03;;;;;;;23.42;70.99;100086.92;;;;-50
2020/08/18 09:29:08;;;;;;;6.94;2.03;;;;;;;23.41;71.21;100083.50;;;;-50
2020/08/18 09:32:08;;;;;;;6.88;2.23;;;;;;;23.42;71.17;100081.59;;;;-52
2020/08/18 09:35:08;;;;;;;5.47;1.96;;;;;;;23.42;71.01;100073.57;;;;-50
2020/08/18 09:38:08;;;;;;;4.08;1.91;;;;;;;23.44;70.87;100078.88;;;;-51
2020/08/18 09:41:08;;;;;;;4.59;1.92;;;;;;;23.44;70.92;100073.23;;;;-50
2020/08/18 09:44:08;;;;;;;5.25;2.13;;;;;;;23.45;71.10;100068.87;;;;-49
2020/08/18 09:47:08;;;;;;;5.45;2.17;;;;;;;23.45;70.94;100073.79;;;;-52
2020/08/18 09:50:08;;;;;;;6.67;1.90;;;;;;;23.46;70.97;100062.33;;;;-48
2020/08/18 09:53:08;;;;;;;9.55;2.15;;;;;;;23.47;70.87;100061.81;;;;-49
2020/08/18 09:56:08;;;;;;;3.17;2.03;;;;;;;23.48;70.85;100061.22;;;;-49
2020/08/18 09:59:08;;;;;;;4.45;1.80;;;;;;;23.48;70.98;100058.26;;;;-50
2020/08/18 10:02:08;;;;;;;6.14;1.97;;;;;;;23.50;70.97;100050.95;;;;-51
2020/08/18 10:05:07;;;;;;;2.59;1.80;;;;;;;23.52;71.02;100047.42;;;;-50
2020/08/18 10:08:08;;;;;;;5.01;1.85;;;;;;;23.53;70.78;100053.61;;;;-51
2020/08/18 10:11:08;;;;;;;8.73;2.13;;;;;;;23.53;70.93;100049.27;;;;-51
2020/08/18 10:14:08;;;;;;;6.05;1.89;;;;;;;23.52;70.94;100043.81;;;;-50
2020/08/18 10:17:08;;;;;;;7.99;1.89;;;;;;;23.52;71.07;100039.58;;;;-51
2020/08/18 10:20:08;;;;;;;3.35;1.90;;;;;;;23.52;71.02;100034.41;;;;-51
2020/08/18 10:23:08;;;;;;;5.74;2.08;;;;;;;23.52;70.99;100030.74;;;;-50
2020/08/18 10:26:08;;;;;;;5.50;2.03;;;;;;;23.52;70.99;100023.95;;;;-51
2020/08/18 10:29:08;;;;;;;3.82;1.91;;;;;;;23.52;70.96;100013.73;;;;-51
2020/08/18 10:32:07;;;;;;;4.71;1.91;;;;;;;23.52;70.94;100015.84;;;;-51
2020/08/18 10:35:08;;;;;;;5.23;1.99;;;;;;;23.51;70.97;100011.27;;;;-50
2020/08/18 10:38:08;;;;;;;5.85;2.23;;;;;;;23.51;70.96;100011.59;;;;-51
2020/08/18 10:41:08;;;;;;;7.33;2.06;;;;;;;23.51;70.95;100008.59;;;;-51
2020/08/18 10:44:08;;;;;;;6.55;1.90;;;;;;;23.53;71.01;99998.81;;;;-49
2020/08/18 10:47:08;;;;;;;5.84;1.89;;;;;;;23.55;71.03;99995.02;;;;-56
2020/08/18 10:50:08;;;;;;;5.61;2.00;;;;;;;23.57;71.07;99998.73;;;;-48
2020/08/18 10:53:08;;;;;;;4.17;2.08;;;;;;;23.58;71.12;99986.21;;;;-59
2020/08/18 10:56:08;;;;;;;8.94;2.06;;;;;;;23.57;71.04;99984.65;;;;-58
2020/08/18 10:59:08;;;;;;;3.78;2.00;;;;;;;23.57;70.98;99984.91;;;;-58
2020/08/18 11:02:08;;;;;;;6.47;1.94;;;;;;;23.57;70.92;99982.69;;;;-58
2020/08/18 11:05:08;;;;;;;3.73;1.90;;;;;;;23.57;70.92;99982.47;;;;-58
2020/08/18 11:08:08;;;;;;;5.15;1.94;;;;;;;23.57;70.88;99977.70;;;;-59
2020/08/18 11:11:07;;;;;;;5.07;1.94;;;;;;;23.56;70.83;99975.27;;;;-58
2020/08/18 11:14:08;;;;;;;3.59;1.81;;;;;;;23.57;70.81;99972.63;;;;-58
2020/08/18 11:17:07;;;;;;;3.76;1.86;;;;;;;23.57;70.84;99972.30;;;;-58
2020/08/18 11:20:08;;;;;;;3.87;1.91;;;;;;;23.56;70.81;99963.50;;;;-58
2020/08/18 11:23:08;;;;;;;3.66;1.85;;;;;;;23.56;70.77;99958.53;;;;-59
2020/08/18 11:26:08;;;;;;;3.24;1.83;;;;;;;23.55;70.78;99954.75;;;;-58
2020/08/18 11:29:08;;;;;;;3.81;1.66;;;;;;;23.55;70.75;99958.02;;;;-57
2020/08/18 11:32:07;;;;;;;2.63;1.80;;;;;;;23.55;70.77;99953.53;;;;-57
2020/08/18 11:35:08;;;;;;;3.15;1.80;;;;;;;23.54;70.72;99949.23;;;;-58
2020/08/18 11:38:07;;;;;;;3.35;1.91;;;;;;;23.54;70.76;99949.89;;;;-58
2020/08/18 11:41:08;;;;;;;3.75;1.84;;;;;;;23.53;70.76;99951.12;;;;-58
2020/08/18 11:44:08;;;;;;;3.30;1.70;;;;;;;23.54;70.70;99947.93;;;;-59
2020/08/18 11:47:08;;;;;;;2.77;2.00;;;;;;;23.54;70.70;99936.46;;;;-58
2020/08/18 11:50:08;;;;;;;2.46;1.74;;;;;;;23.53;70.71;99934.94;;;;-58
2020/08/18 11:53:08;;;;;;;2.01;1.71;;;;;;;23.54;70.70;99932.39;;;;-58
2020/08/18 11:56:08;;;;;;;3.29;1.70;;;;;;;23.54;70.68;99933.37;;;;-58
2020/08/18 11:59:08;;;;;;;3.39;1.75;;;;;;;23.53;70.66;99932.97;;;;-58
2020/08/18 12:02:08;;;;;;;2.79;1.91;;;;;;;23.53;70.66;99925.34;;;;-58
2020/08/18 12:05:08;;;;;;;4.01;1.69;;;;;;;23.54;70.64;99927.81;;;;-58
2020/08/18 12:08:08;;;;;;;2.91;1.83;;;;;;;23.52;70.66;99928.65;;;;-58
2020/08/18 12:11:08;;;;;;;3.47;1.77;;;;;;;23.52;70.70;99925.78;;;;-58
2020/08/18 12:14:07;;;;;;;3.79;1.71;;;;;;;23.52;70.67;99923.00;;;;-59
2020/08/18 12:17:07;;;;;;;2.68;1.65;;;;;;;23.52;70.68;99920.16;;;;-58
2020/08/18 12:20:08;;;;;;;3.23;1.71;;;;;;;23.51;70.71;99911.91;;;;-57
2020/08/18 12:23:08;;;;;;;2.89;1.59;;;;;;;23.53;70.94;99926.48;;;;-47
2020/08/18 12:26:07;;;;;;;2.06;1.62;;;;;;;23.56;70.78;99924.50;;;;-49
2020/08/18 12:29:08;;;;;;;2.47;1.71;;;;;;;23.57;70.82;99923.73;;;;-50
2020/08/18 12:32:08;;;;;;;2.70;1.70;;;;;;;23.59;70.86;99919.42;;;;-50
2020/08/18 12:35:08;;;;;;;2.90;1.60;;;;;;;23.61;70.96;99917.52;;;;-48
2020/08/18 12:38:08;;;;;;;2.07;1.59;;;;;;;23.63;70.99;99915.93;;;;-49
2020/08/18 12:41:08;;;;;;;3.77;1.91;;;;;;;23.64;70.96;99906.73;;;;-49
2020/08/18 12:44:07;;;;;;;3.13;1.79;;;;;;;23.65;70.97;99903.62;;;;-50
2020/08/18 12:47:08;;;;;;;6.23;1.72;;;;;;;23.63;70.75;99904.04;;;;-50
2020/08/18 12:50:08;;;;;;;4.77;1.69;;;;;;;23.63;70.74;99906.75;;;;-50
2020/08/18 12:53:08;;;;;;;4.86;1.56;;;;;;;23.62;70.86;99900.00;;;;-50
2020/08/18 12:56:08;;;;;;;4.23;1.70;;;;;;;23.61;70.83;99898.69;;;;-50
2020/08/18 12:59:08;;;;;;;5.73;1.65;;;;;;;23.60;70.77;99895.28;;;;-50
2020/08/18 13:02:08;;;;;;;5.60;1.68;;;;;;;23.60;70.80;99890.72;;;;-50
2020/08/18 13:05:08;;;;;;;2.47;1.78;;;;;;;23.59;70.77;99885.66;;;;-50
2020/08/18 13:08:08;;;;;;;6.05;1.99;;;;;;;23.58;70.78;99878.33;;;;-50
2020/08/18 13:11:08;;;;;;;2.65;1.70;;;;;;;23.57;70.75;99874.16;;;;-50
2020/08/18 13:14:08;;;;;;;5.48;1.79;;;;;;;23.56;70.75;99870.73;;;;-50
2020/08/18 13:17:07;;;;;;;4.03;1.70;;;;;;;23.56;70.76;99863.39;;;;-50
2020/08/18 13:20:07;;;;;;;2.87;1.64;;;;;;;23.55;70.75;99863.30;;;;-50
2020/08/18 13:23:07;;;;;;;4.52;1.63;;;;;;;23.54;70.75;99859.16;;;;-50
2020/08/18 13:26:08;;;;;;;3.23;1.57;;;;;;;23.54;70.70;99853.94;;;;-51
2020/08/18 13:29:07;;;;;;;1.63;1.39;;;;;;;23.53;70.70;99846.17;;;;-50
2020/08/18 13:32:08;;;;;;;2.59;1.55;;;;;;;23.52;70.66;99842.52;;;;-50
2020/08/18 13:35:08;;;;;;;1.77;1.58;;;;;;;23.52;70.61;99838.38;;;;-51
2020/08/18 13:38:08;;;;;;;3.38;1.63;;;;;;;23.51;70.72;99842.13;;;;-50
2020/08/18 13:41:08;;;;;;;2.19;1.60;;;;;;;23.50;70.67;99842.56;;;;-50
2020/08/18 13:44:08;;;;;;;2.13;1.67;;;;;;;23.50;70.68;99842.73;;;;-50
2020/08/18 13:47:08;;;;;;;2.05;1.51;;;;;;;23.50;70.67;99837.18;;;;-50
2020/08/18 13:50:07;;;;;;;2.46;1.52;;;;;;;23.49;70.68;99835.78;;;;-50
2020/08/18 13:53:08;;;;;;;1.65;1.50;;;;;;;23.48;70.69;99838.91;;;;-50
2020/08/18 13:56:07;;;;;;;2.01;1.53;;;;;;;23.49;70.65;99833.09;;;;-50
2020/08/18 13:59:08;;;;;;;1.94;1.61;;;;;;;23.48;70.67;99830.73;;;;-50
2020/08/18 14:02:08;;;;;;;3.37;1.50;;;;;;;23.48;70.61;99825.77;;;;-50
2020/08/18 14:05:08;;;;;;;9.49;1.69;;;;;;;23.48;70.85;99820.28;;;;-48
2020/08/18 14:08:08;;;;;;;2.01;1.49;;;;;;;23.49;70.91;99821.48;;;;-49
2020/08/18 14:11:08;;;;;;;2.92;1.69;;;;;;;23.50;70.96;99818.52;;;;-50
2020/08/18 14:14:08;;;;;;;3.03;1.73;;;;;;;23.52;70.93;99821.69;;;;-52
2020/08/18 14:17:08;;;;;;;3.38;1.75;;;;;;;23.51;71.10;99831.16;;;;-48
2020/08/18 14:20:07;;;;;;;6.79;1.75;;;;;;;23.53;71.24;99828.19;;;;-54
2020/08/18 14:23:07;;;;;;;2.31;1.52;;;;;;;23.55;71.19;99828.23;;;;-54
2020/08/18 14:26:08;;;;;;;4.91;1.60;;;;;;;23.57;71.17;99824.75;;;;-50
2020/08/18 14:29:07;;;;;;;3.76;1.61;;;;;;;23.58;71.26;99829.16;;;;-52
2020/08/18 14:32:08;;;;;;;3.83;1.73;;;;;;;23.60;71.21;99828.72;;;;-55
2020/08/18 14:35:08;;;;;;;3.24;1.74;;;;;;;23.62;71.35;99825.08;;;;-50
2020/08/18 14:38:08;;;;;;;3.04;1.53;;;;;;;23.64;71.33;99833.27;;;;-52
2020/08/18 14:41:08;;;;;;;2.65;1.55;;;;;;;23.63;71.13;99829.11;;;;-52
2020/08/18 14:44:08;;;;;;;2.84;1.65;;;;;;;23.63;70.90;99828.41;;;;-51
2020/08/18 14:47:08;;;;;;;3.32;1.81;;;;;;;23.63;70.95;99837.23;;;;-51
2020/08/18 14:50:07;;;;;;;3.83;1.70;;;;;;;23.61;70.78;99840.11;;;;-53
2020/08/18 14:53:07;;;;;;;1.89;1.51;;;;;;;23.61;70.79;99834.57;;;;-52
2020/08/18 14:56:08;;;;;;;2.85;1.57;;;;;;;23.60;70.80;99833.05;;;;-52
2020/08/18 14:59:08;;;;;;;2.15;1.51;;;;;;;23.58;70.74;99829.14;;;;-52
2020/08/18 15:02:07;;;;;;;2.39;1.47;;;;;;;23.58;70.73;99825.54;;;;-52
2020/08/18 15:05:08;;;;;;;3.45;1.68;;;;;;;23.58;70.66;99822.55;;;;-52
2020/08/18 15:08:08;;;;;;;2.52;1.67;;;;;;;23.56;70.83;99819.20;;;;-52
2020/08/18 15:11:08;;;;;;;2.18;1.60;;;;;;;23.56;70.74;99816.84;;;;-52
2020/08/18 15:14:08;;;;;;;2.62;1.47;;;;;;;23.55;70.71;99812.53;;;;-53
2020/08/18 15:17:08;;;;;;;1.88;1.40;;;;;;;23.55;70.72;99819.63;;;;-52
2020/08/18 15:20:08;;;;;;;2.51;1.40;;;;;;;23.55;70.68;99821.37;;;;-52
2020/08/18 15:23:07;;;;;;;2.30;1.67;;;;;;;23.54;70.69;99820.48;;;;-52
2020/08/18 15:26:07;;;;;;;4.73;1.50;;;;;;;23.54;70.72;99822.95;;;;-52
2020/08/18 15:29:07;;;;;;;2.05;1.47;;;;;;;23.54;70.70;99829.17;;;;-52
2020/08/18 15:32:07;;;;;;;2.46;1.55;;;;;;;23.53;70.69;99833.83;;;;-52
2020/08/18 15:35:07;;;;;;;2.36;1.41;;;;;;;23.53;70.65;99834.41;;;;-52
2020/08/18 15:38:07;;;;;;;1.64;1.47;;;;;;;23.52;70.66;99835.66;;;;-52
2020/08/18 15:41:08;;;;;;;2.01;1.46;;;;;;;23.51;70.70;99842.38;;;;-52
2020/08/18 15:44:08;;;;;;;1.63;1.42;;;;;;;23.50;70.68;99851.81;;;;-52
2020/08/18 15:47:08;;;;;;;2.84;1.60;;;;;;;23.50;70.71;99852.86;;;;-52
2020/08/18 15:50:08;;;;;;;2.20;1.43;;;;;;;23.49;70.70;99842.44;;;;-52
2020/08/18 15:53:08;;;;;;;1.69;1.50;;;;;;;23.49;70.70;99836.04;;;;-52
2020/08/18 15:56:07;;;;;;;2.95;1.41;;;;;;;23.48;70.69;99837.11;;;;-52
2020/08/18 15:59:07;;;;;;;2.48;1.60;;;;;;;23.48;70.96;99832.06;;;;-48
2020/08/18 16:02:07;;;;;;;5.11;1.77;;;;;;;23.49;71.00;99832.93;;;;-52
2020/08/18 16:05:07;;;;;;;8.70;1.73;;;;;;;23.49;71.00;99834.81;;;;-49
2020/08/18 16:08:08;;;;;;;2.49;1.42;;;;;;;23.50;71.18;99834.30;;;;-49
2020/08/18 16:11:08;;;;;;;4.35;1.76;;;;;;;23.51;71.24;99837.22;;;;-50
2020/08/18 16:14:08;;;;;;;4.21;1.73;;;;;;;23.53;71.12;99835.97;;;;-49
2020/08/18 16:17:08;;;;;;;4.19;1.53;;;;;;;23.55;71.09;99831.75;;;;-51
2020/08/18 16:20:08;;;;;;;2.50;1.69;;;;;;;23.57;71.12;99839.38;;;;-49
2020/08/18 16:23:08;;;;;;;3.65;1.75;;;;;;;23.58;71.29;99838.72;;;;-53
2020/08/18 16:26:07;;;;;;;3.26;1.57;;;;;;;23.60;71.24;99832.05;;;;-51
2020/08/18 16:29:07;;;;;;;1.95;1.54;;;;;;;23.62;71.23;99835.88;;;;-51
2020/08/18 16:32:07;;;;;;;2.75;1.58;;;;;;;23.64;71.27;99837.53;;;;-50
2020/08/18 16:35:07;;;;;;;4.36;1.77;;;;;;;23.65;71.22;99842.75;;;;-50
2020/08/18 16:38:07;;;;;;;3.09;1.61;;;;;;;23.66;71.33;99850.09;;;;-51
2020/08/18 16:41:07;;;;;;;4.07;1.64;;;;;;;23.67;71.22;99871.98;;;;-50
2020/08/18 16:44:08;;;;;;;2.73;1.61;;;;;;;23.67;71.23;99869.45;;;;-49
2020/08/18 16:47:08;;;;;;;2.81;1.60;;;;;;;23.69;71.27;99882.92;;;;-54
2020/08/18 16:50:08;;;;;;;4.10;1.65;;;;;;;23.70;71.20;99885.75;;;;-50
2020/08/18 16:53:08;;;;;;;2.41;1.49;;;;;;;23.71;71.27;99877.46;;;;-49